sensor_id;sensor_type;location;lat;lon;timestamp;P1;durP1;ratioP1;P2;durP2;ratioP2
53044;SDS011;38930;52.766;6.884;2023-03-12T00:01:20;12.80;;;6.72;;
53044;SDS011;38930;52.766;6.884;2023-03-12T00:03:48;11.20;;;6.93;;
53044;SDS011;38930;52.766;6.884;2023-03-12T00:06:14;12.50;;;6.47;;
53044;SDS011;38930;52.766;6.884;2023-03-12T00:08:41;11.85;;;7.28;;
53044;SDS011;38930;52.766;6.884;2023-03-12T00:11:17;12.32;;;6.38;;
53044;SDS011;38930;52.766;6.884;2023-03-12T00:13:48;13.13;;;6.93;;
53044;SDS011;38930;52.766;6.884;2023-03-12T00:16:18;12.55;;;7.15;;
53044;SDS011;38930;52.766;6.884;2023-03-12T00:18:46;9.73;;;7.07;;
53044;SDS011;38930;52.766;6.884;2023-03-12T00:21:15;11.05;;;6.88;;
53044;SDS011;38930;52.766;6.884;2023-03-12T00:23:41;12.30;;;6.80;;
53044;SDS011;38930;52.766;6.884;2023-03-12T00:26:08;15.38;;;7.30;;
53044;SDS011;38930;52.766;6.884;2023-03-12T00:28:36;14.70;;;7.28;;
53044;SDS011;38930;52.766;6.884;2023-03-12T00:31:12;16.73;;;7.25;;
53044;SDS011;38930;52.766;6.884;2023-03-12T00:33:40;15.10;;;7.72;;
53044;SDS011;38930;52.766;6.884;2023-03-12T00:36:06;14.60;;;6.63;;
53044;SDS011;38930;52.766;6.884;2023-03-12T00:38:32;10.40;;;6.43;;
53044;SDS011;38930;52.766;6.884;2023-03-12T00:40:57;9.73;;;5.93;;
53044;SDS011;38930;52.766;6.884;2023-03-12T00:43:26;13.35;;;6.43;;
53044;SDS011;38930;52.766;6.884;2023-03-12T00:45:51;10.60;;;5.28;;
53044;SDS011;38930;52.766;6.884;2023-03-12T00:48:17;13.65;;;6.40;;
53044;SDS011;38930;52.766;6.884;2023-03-12T00:50:43;10.20;;;5.80;;
53044;SDS011;38930;52.766;6.884;2023-03-12T00:53:08;13.07;;;5.93;;
53044;SDS011;38930;52.766;6.884;2023-03-12T00:55:34;10.38;;;6.03;;
53044;SDS011;38930;52.766;6.884;2023-03-12T00:58:00;9.60;;;6.03;;
53044;SDS011;38930;52.766;6.884;2023-03-12T01:00:25;9.10;;;5.18;;
53044;SDS011;38930;52.766;6.884;2023-03-12T01:02:51;12.20;;;5.72;;
53044;SDS011;38930;52.766;6.884;2023-03-12T01:05:17;10.15;;;5.95;;
53044;SDS011;38930;52.766;6.884;2023-03-12T01:07:43;7.68;;;5.15;;
53044;SDS011;38930;52.766;6.884;2023-03-12T01:10:09;11.77;;;5.20;;
53044;SDS011;38930;52.766;6.884;2023-03-12T01:12:37;10.65;;;5.40;;
53044;SDS011;38930;52.766;6.884;2023-03-12T01:15:03;7.85;;;4.88;;
53044;SDS011;38930;52.766;6.884;2023-03-12T01:17:29;9.55;;;5.32;;
53044;SDS011;38930;52.766;6.884;2023-03-12T01:19:55;8.27;;;5.20;;
53044;SDS011;38930;52.766;6.884;2023-03-12T01:22:20;12.05;;;5.18;;
53044;SDS011;38930;52.766;6.884;2023-03-12T01:24:46;9.52;;;4.75;;
53044;SDS011;38930;52.766;6.884;2023-03-12T01:27:12;7.30;;;4.82;;
53044;SDS011;38930;52.766;6.884;2023-03-12T01:29:37;7.57;;;4.70;;
53044;SDS011;38930;52.766;6.884;2023-03-12T01:32:03;7.65;;;4.75;;
53044;SDS011;38930;52.766;6.884;2023-03-12T01:34:29;7.05;;;4.78;;
53044;SDS011;38930;52.766;6.884;2023-03-12T01:36:57;8.30;;;4.63;;
53044;SDS011;38930;52.766;6.884;2023-03-12T01:39:23;8.63;;;4.68;;
53044;SDS011;38930;52.766;6.884;2023-03-12T01:41:50;7.78;;;4.82;;
53044;SDS011;38930;52.766;6.884;2023-03-12T01:44:15;7.50;;;4.68;;
53044;SDS011;38930;52.766;6.884;2023-03-12T01:46:42;9.77;;;4.28;;
53044;SDS011;38930;52.766;6.884;2023-03-12T01:54:06;8.57;;;4.82;;
53044;SDS011;38930;52.766;6.884;2023-03-12T01:56:36;7.40;;;5.03;;
53044;SDS011;38930;52.766;6.884;2023-03-12T01:59:08;7.95;;;4.45;;
53044;SDS011;38930;52.766;6.884;2023-03-12T02:01:38;10.32;;;4.68;;
53044;SDS011;38930;52.766;6.884;2023-03-12T02:04:05;9.35;;;4.95;;
53044;SDS011;38930;52.766;6.884;2023-03-12T02:06:39;6.13;;;4.40;;
53044;SDS011;38930;52.766;6.884;2023-03-12T02:09:25;11.95;;;4.85;;
53044;SDS011;38930;52.766;6.884;2023-03-12T02:11:50;8.50;;;4.47;;
53044;SDS011;38930;52.766;6.884;2023-03-12T02:14:16;9.80;;;4.53;;
53044;SDS011;38930;52.766;6.884;2023-03-12T02:16:42;6.15;;;4.10;;
53044;SDS011;38930;52.766;6.884;2023-03-12T02:19:12;8.52;;;5.22;;
53044;SDS011;38930;52.766;6.884;2023-03-12T02:21:44;8.85;;;4.30;;
53044;SDS011;38930;52.766;6.884;2023-03-12T02:27:00;10.60;;;4.90;;
53044;SDS011;38930;52.766;6.884;2023-03-12T02:29:27;8.23;;;4.80;;
53044;SDS011;38930;52.766;6.884;2023-03-12T02:31:56;6.95;;;4.18;;
53044;SDS011;38930;52.766;6.884;2023-03-12T02:34:24;7.75;;;4.50;;
53044;SDS011;38930;52.766;6.884;2023-03-12T02:36:50;11.10;;;4.43;;
53044;SDS011;38930;52.766;6.884;2023-03-12T02:39:16;9.52;;;4.22;;
53044;SDS011;38930;52.766;6.884;2023-03-12T02:41:53;12.43;;;5.20;;
53044;SDS011;38930;52.766;6.884;2023-03-12T02:44:22;6.45;;;4.50;;
53044;SDS011;38930;52.766;6.884;2023-03-12T02:46:50;9.77;;;4.88;;
53044;SDS011;38930;52.766;6.884;2023-03-12T02:49:18;8.68;;;4.88;;
53044;SDS011;38930;52.766;6.884;2023-03-12T02:51:46;8.48;;;4.25;;
53044;SDS011;38930;52.766;6.884;2023-03-12T02:54:13;8.30;;;4.78;;
53044;SDS011;38930;52.766;6.884;2023-03-12T02:56:40;11.48;;;4.70;;
53044;SDS011;38930;52.766;6.884;2023-03-12T02:59:06;6.25;;;4.35;;
53044;SDS011;38930;52.766;6.884;2023-03-12T03:01:32;7.63;;;4.90;;
53044;SDS011;38930;52.766;6.884;2023-03-12T03:03:59;8.05;;;4.40;;
53044;SDS011;38930;52.766;6.884;2023-03-12T03:06:29;8.73;;;4.40;;
53044;SDS011;38930;52.766;6.884;2023-03-12T03:08:56;10.70;;;6.55;;
53044;SDS011;38930;52.766;6.884;2023-03-12T03:11:22;9.68;;;5.22;;
53044;SDS011;38930;52.766;6.884;2023-03-12T03:13:49;8.55;;;5.20;;
53044;SDS011;38930;52.766;6.884;2023-03-12T03:16:18;11.15;;;5.53;;
53044;SDS011;38930;52.766;6.884;2023-03-12T03:18:44;13.53;;;6.23;;
53044;SDS011;38930;52.766;6.884;2023-03-12T03:21:10;10.00;;;5.28;;
53044;SDS011;38930;52.766;6.884;2023-03-12T03:23:40;8.05;;;5.07;;
53044;SDS011;38930;52.766;6.884;2023-03-12T03:26:07;9.90;;;5.40;;
53044;SDS011;38930;52.766;6.884;2023-03-12T03:28:33;13.20;;;5.53;;
53044;SDS011;38930;52.766;6.884;2023-03-12T03:30:58;7.40;;;5.40;;
53044;SDS011;38930;52.766;6.884;2023-03-12T03:33:28;8.02;;;4.85;;
53044;SDS011;38930;52.766;6.884;2023-03-12T03:35:55;12.05;;;5.50;;
53044;SDS011;38930;52.766;6.884;2023-03-12T03:38:23;10.02;;;6.47;;
53044;SDS011;38930;52.766;6.884;2023-03-12T03:40:50;20.17;;;5.68;;
53044;SDS011;38930;52.766;6.884;2023-03-12T03:43:16;7.85;;;5.20;;
53044;SDS011;38930;52.766;6.884;2023-03-12T03:45:41;8.80;;;5.63;;
53044;SDS011;38930;52.766;6.884;2023-03-12T03:50:37;7.65;;;4.95;;
53044;SDS011;38930;52.766;6.884;2023-03-12T03:53:04;9.40;;;5.03;;
53044;SDS011;38930;52.766;6.884;2023-03-12T03:55:37;6.82;;;4.82;;
53044;SDS011;38930;52.766;6.884;2023-03-12T03:58:04;8.52;;;5.75;;
53044;SDS011;38930;52.766;6.884;2023-03-12T04:00:30;8.82;;;5.25;;
53044;SDS011;38930;52.766;6.884;2023-03-12T04:02:56;8.80;;;5.30;;
53044;SDS011;38930;52.766;6.884;2023-03-12T04:05:21;8.27;;;5.13;;
53044;SDS011;38930;52.766;6.884;2023-03-12T04:07:47;10.38;;;5.22;;
53044;SDS011;38930;52.766;6.884;2023-03-12T04:10:12;8.18;;;5.35;;
53044;SDS011;38930;52.766;6.884;2023-03-12T04:12:38;12.95;;;5.38;;
53044;SDS011;38930;52.766;6.884;2023-03-12T04:15:04;12.52;;;5.85;;
53044;SDS011;38930;52.766;6.884;2023-03-12T04:17:30;8.57;;;5.47;;
53044;SDS011;38930;52.766;6.884;2023-03-12T04:19:56;7.50;;;5.28;;
53044;SDS011;38930;52.766;6.884;2023-03-12T04:22:21;10.52;;;5.65;;
53044;SDS011;38930;52.766;6.884;2023-03-12T04:24:47;10.23;;;6.00;;
53044;SDS011;38930;52.766;6.884;2023-03-12T04:27:12;8.85;;;5.53;;
53044;SDS011;38930;52.766;6.884;2023-03-12T04:29:38;7.65;;;5.18;;
53044;SDS011;38930;52.766;6.884;2023-03-12T04:32:05;13.48;;;5.55;;
53044;SDS011;38930;52.766;6.884;2023-03-12T04:34:31;10.02;;;6.18;;
53044;SDS011;38930;52.766;6.884;2023-03-12T04:36:56;12.20;;;6.10;;
53044;SDS011;38930;52.766;6.884;2023-03-12T04:39:22;8.30;;;5.85;;
53044;SDS011;38930;52.766;6.884;2023-03-12T04:41:48;11.38;;;5.78;;
53044;SDS011;38930;52.766;6.884;2023-03-12T04:44:14;14.13;;;6.07;;
53044;SDS011;38930;52.766;6.884;2023-03-12T04:46:40;9.40;;;6.22;;
53044;SDS011;38930;52.766;6.884;2023-03-12T04:49:06;10.35;;;6.15;;
53044;SDS011;38930;52.766;6.884;2023-03-12T04:51:32;8.43;;;6.18;;
53044;SDS011;38930;52.766;6.884;2023-03-12T04:53:58;12.45;;;5.78;;
53044;SDS011;38930;52.766;6.884;2023-03-12T04:56:23;10.18;;;6.18;;
53044;SDS011;38930;52.766;6.884;2023-03-12T04:58:50;8.07;;;6.15;;
53044;SDS011;38930;52.766;6.884;2023-03-12T05:01:26;10.38;;;6.20;;
53044;SDS011;38930;52.766;6.884;2023-03-12T05:03:55;8.00;;;6.18;;
53044;SDS011;38930;52.766;6.884;2023-03-12T05:06:20;12.18;;;6.63;;
53044;SDS011;38930;52.766;6.884;2023-03-12T05:08:47;9.30;;;5.80;;
53044;SDS011;38930;52.766;6.884;2023-03-12T05:11:14;11.52;;;6.20;;
53044;SDS011;38930;52.766;6.884;2023-03-12T05:13:40;9.95;;;6.55;;
53044;SDS011;38930;52.766;6.884;2023-03-12T05:16:06;13.85;;;6.85;;
53044;SDS011;38930;52.766;6.884;2023-03-12T05:18:33;7.05;;;5.88;;
53044;SDS011;38930;52.766;6.884;2023-03-12T05:21:06;9.95;;;5.80;;
53044;SDS011;38930;52.766;6.884;2023-03-12T05:23:36;11.18;;;6.32;;
53044;SDS011;38930;52.766;6.884;2023-03-12T05:28:30;10.25;;;6.47;;
53044;SDS011;38930;52.766;6.884;2023-03-12T05:30:56;12.82;;;6.13;;
53044;SDS011;38930;52.766;6.884;2023-03-12T05:33:23;8.45;;;5.80;;
53044;SDS011;38930;52.766;6.884;2023-03-12T05:35:49;11.05;;;6.07;;
53044;SDS011;38930;52.766;6.884;2023-03-12T05:38:15;10.73;;;6.05;;
53044;SDS011;38930;52.766;6.884;2023-03-12T05:40:40;11.45;;;6.43;;
53044;SDS011;38930;52.766;6.884;2023-03-12T05:43:06;10.90;;;6.40;;
53044;SDS011;38930;52.766;6.884;2023-03-12T05:45:32;12.93;;;6.32;;
53044;SDS011;38930;52.766;6.884;2023-03-12T05:47:58;10.73;;;6.65;;
53044;SDS011;38930;52.766;6.884;2023-03-12T05:50:24;11.25;;;5.88;;
53044;SDS011;38930;52.766;6.884;2023-03-12T05:52:50;11.48;;;5.45;;
53044;SDS011;38930;52.766;6.884;2023-03-12T05:55:16;8.57;;;5.70;;
53044;SDS011;38930;52.766;6.884;2023-03-12T05:57:42;8.35;;;5.15;;
53044;SDS011;38930;52.766;6.884;2023-03-12T06:00:08;15.35;;;5.63;;
53044;SDS011;38930;52.766;6.884;2023-03-12T06:02:37;10.13;;;5.78;;
53044;SDS011;38930;52.766;6.884;2023-03-12T06:05:02;12.13;;;5.93;;
53044;SDS011;38930;52.766;6.884;2023-03-12T06:07:28;8.00;;;5.38;;
53044;SDS011;38930;52.766;6.884;2023-03-12T06:09:54;15.70;;;6.22;;
53044;SDS011;38930;52.766;6.884;2023-03-12T06:12:20;8.82;;;5.93;;
53044;SDS011;38930;52.766;6.884;2023-03-12T06:14:45;7.50;;;5.68;;
53044;SDS011;38930;52.766;6.884;2023-03-12T06:17:11;8.68;;;5.90;;
53044;SDS011;38930;52.766;6.884;2023-03-12T06:19:36;10.55;;;6.20;;
53044;SDS011;38930;52.766;6.884;2023-03-12T06:22:02;13.13;;;5.80;;
53044;SDS011;38930;52.766;6.884;2023-03-12T06:24:28;13.13;;;6.65;;
53044;SDS011;38930;52.766;6.884;2023-03-12T06:26:53;10.30;;;6.32;;
53044;SDS011;38930;52.766;6.884;2023-03-12T06:29:19;9.40;;;6.75;;
53044;SDS011;38930;52.766;6.884;2023-03-12T06:31:45;10.57;;;6.43;;
53044;SDS011;38930;52.766;6.884;2023-03-12T06:34:12;11.13;;;6.20;;
53044;SDS011;38930;52.766;6.884;2023-03-12T06:36:37;11.02;;;6.28;;
53044;SDS011;38930;52.766;6.884;2023-03-12T06:39:03;9.57;;;5.90;;
53044;SDS011;38930;52.766;6.884;2023-03-12T06:41:33;8.85;;;6.05;;
53044;SDS011;38930;52.766;6.884;2023-03-12T06:43:58;11.88;;;6.90;;
53044;SDS011;38930;52.766;6.884;2023-03-12T06:48:51;9.40;;;6.43;;
53044;SDS011;38930;52.766;6.884;2023-03-12T06:51:17;9.13;;;6.60;;
53044;SDS011;38930;52.766;6.884;2023-03-12T06:53:43;9.68;;;6.78;;
53044;SDS011;38930;52.766;6.884;2023-03-12T06:58:35;9.65;;;6.55;;
53044;SDS011;38930;52.766;6.884;2023-03-12T07:01:01;12.60;;;6.53;;
53044;SDS011;38930;52.766;6.884;2023-03-12T07:03:27;8.25;;;6.55;;
53044;SDS011;38930;52.766;6.884;2023-03-12T07:05:54;8.13;;;5.65;;
53044;SDS011;38930;52.766;6.884;2023-03-12T07:08:20;12.93;;;7.38;;
53044;SDS011;38930;52.766;6.884;2023-03-12T07:10:47;9.43;;;5.70;;
53044;SDS011;38930;52.766;6.884;2023-03-12T07:13:12;10.73;;;6.50;;
53044;SDS011;38930;52.766;6.884;2023-03-12T07:15:38;10.25;;;6.45;;
53044;SDS011;38930;52.766;6.884;2023-03-12T07:18:08;12.02;;;6.60;;
53044;SDS011;38930;52.766;6.884;2023-03-12T07:20:36;10.52;;;6.57;;
53044;SDS011;38930;52.766;6.884;2023-03-12T07:23:03;9.77;;;6.07;;
53044;SDS011;38930;52.766;6.884;2023-03-12T07:25:29;13.55;;;6.75;;
53044;SDS011;38930;52.766;6.884;2023-03-12T07:27:55;14.43;;;6.60;;
53044;SDS011;38930;52.766;6.884;2023-03-12T07:30:20;10.20;;;6.75;;
53044;SDS011;38930;52.766;6.884;2023-03-12T07:32:46;10.95;;;6.60;;
53044;SDS011;38930;52.766;6.884;2023-03-12T07:35:12;13.20;;;6.75;;
53044;SDS011;38930;52.766;6.884;2023-03-12T07:37:37;8.55;;;5.97;;
53044;SDS011;38930;52.766;6.884;2023-03-12T07:40:03;11.45;;;6.55;;
53044;SDS011;38930;52.766;6.884;2023-03-12T07:42:32;11.23;;;6.80;;
53044;SDS011;38930;52.766;6.884;2023-03-12T07:44:58;11.43;;;6.35;;
53044;SDS011;38930;52.766;6.884;2023-03-12T07:47:23;10.25;;;6.15;;
53044;SDS011;38930;52.766;6.884;2023-03-12T07:49:49;15.13;;;6.05;;
53044;SDS011;38930;52.766;6.884;2023-03-12T07:52:15;9.10;;;6.03;;
53044;SDS011;38930;52.766;6.884;2023-03-12T07:54:42;11.70;;;6.70;;
53044;SDS011;38930;52.766;6.884;2023-03-12T07:57:07;8.63;;;6.68;;
53044;SDS011;38930;52.766;6.884;2023-03-12T07:59:33;8.70;;;5.75;;
53044;SDS011;38930;52.766;6.884;2023-03-12T08:01:59;13.75;;;6.15;;
53044;SDS011;38930;52.766;6.884;2023-03-12T08:04:24;13.60;;;6.60;;
53044;SDS011;38930;52.766;6.884;2023-03-12T08:06:50;12.25;;;6.82;;
53044;SDS011;38930;52.766;6.884;2023-03-12T08:09:15;9.75;;;7.53;;
53044;SDS011;38930;52.766;6.884;2023-03-12T08:11:41;10.75;;;6.50;;
53044;SDS011;38930;52.766;6.884;2023-03-12T08:14:07;12.45;;;6.85;;
53044;SDS011;38930;52.766;6.884;2023-03-12T08:16:32;10.15;;;6.78;;
53044;SDS011;38930;52.766;6.884;2023-03-12T08:18:58;8.15;;;5.45;;
53044;SDS011;38930;52.766;6.884;2023-03-12T08:21:23;14.77;;;6.47;;
53044;SDS011;38930;52.766;6.884;2023-03-12T08:23:49;8.60;;;6.20;;
53044;SDS011;38930;52.766;6.884;2023-03-12T08:26:15;11.70;;;6.75;;
53044;SDS011;38930;52.766;6.884;2023-03-12T08:28:40;13.43;;;7.03;;
53044;SDS011;38930;52.766;6.884;2023-03-12T08:31:06;9.63;;;6.78;;
53044;SDS011;38930;52.766;6.884;2023-03-12T08:33:33;11.75;;;6.80;;
53044;SDS011;38930;52.766;6.884;2023-03-12T08:35:59;12.80;;;7.07;;
53044;SDS011;38930;52.766;6.884;2023-03-12T08:38:25;10.07;;;7.43;;
53044;SDS011;38930;52.766;6.884;2023-03-12T08:40:56;13.77;;;7.47;;
53044;SDS011;38930;52.766;6.884;2023-03-12T08:43:22;9.80;;;6.57;;
53044;SDS011;38930;52.766;6.884;2023-03-12T08:45:52;10.68;;;6.88;;
53044;SDS011;38930;52.766;6.884;2023-03-12T08:48:19;11.02;;;6.50;;
53044;SDS011;38930;52.766;6.884;2023-03-12T08:50:44;9.45;;;7.22;;
53044;SDS011;38930;52.766;6.884;2023-03-12T08:53:10;10.23;;;6.43;;
53044;SDS011;38930;52.766;6.884;2023-03-12T08:55:36;9.25;;;7.55;;
53044;SDS011;38930;52.766;6.884;2023-03-12T08:58:01;13.50;;;7.43;;
53044;SDS011;38930;52.766;6.884;2023-03-12T09:00:27;15.27;;;8.00;;
53044;SDS011;38930;52.766;6.884;2023-03-12T09:02:53;14.53;;;8.43;;
53044;SDS011;38930;52.766;6.884;2023-03-12T09:05:22;16.35;;;11.68;;
53044;SDS011;38930;52.766;6.884;2023-03-12T09:07:54;15.23;;;12.10;;
53044;SDS011;38930;52.766;6.884;2023-03-12T09:10:20;14.65;;;10.30;;
53044;SDS011;38930;52.766;6.884;2023-03-12T09:12:46;14.20;;;10.23;;
53044;SDS011;38930;52.766;6.884;2023-03-12T09:15:11;12.85;;;8.77;;
53044;SDS011;38930;52.766;6.884;2023-03-12T09:17:37;12.98;;;8.52;;
53044;SDS011;38930;52.766;6.884;2023-03-12T09:20:04;14.50;;;9.80;;
53044;SDS011;38930;52.766;6.884;2023-03-12T09:22:32;14.73;;;10.10;;
53044;SDS011;38930;52.766;6.884;2023-03-12T09:25:01;15.32;;;11.00;;
53044;SDS011;38930;52.766;6.884;2023-03-12T09:27:28;15.13;;;10.43;;
53044;SDS011;38930;52.766;6.884;2023-03-12T09:29:53;15.07;;;9.45;;
53044;SDS011;38930;52.766;6.884;2023-03-12T09:32:19;13.43;;;9.60;;
53044;SDS011;38930;52.766;6.884;2023-03-12T09:34:45;14.20;;;9.43;;
53044;SDS011;38930;52.766;6.884;2023-03-12T09:37:10;16.67;;;10.07;;
53044;SDS011;38930;52.766;6.884;2023-03-12T09:39:36;18.27;;;10.25;;
53044;SDS011;38930;52.766;6.884;2023-03-12T09:42:02;20.80;;;11.00;;
53044;SDS011;38930;52.766;6.884;2023-03-12T09:44:41;15.32;;;10.80;;
53044;SDS011;38930;52.766;6.884;2023-03-12T09:50:06;16.15;;;10.55;;
53044;SDS011;38930;52.766;6.884;2023-03-12T09:52:49;14.82;;;10.45;;
53044;SDS011;38930;52.766;6.884;2023-03-12T09:55:23;15.95;;;10.73;;
53044;SDS011;38930;52.766;6.884;2023-03-12T09:57:50;14.88;;;10.57;;
53044;SDS011;38930;52.766;6.884;2023-03-12T10:00:19;18.15;;;10.30;;
53044;SDS011;38930;52.766;6.884;2023-03-12T10:14:18;16.42;;;10.65;;
53044;SDS011;38930;52.766;6.884;2023-03-12T10:17:06;17.58;;;10.27;;
53044;SDS011;38930;52.766;6.884;2023-03-12T10:20:00;19.48;;;10.55;;
53044;SDS011;38930;52.766;6.884;2023-03-12T10:28:05;14.93;;;10.10;;
53044;SDS011;38930;52.766;6.884;2023-03-12T10:30:44;18.25;;;11.43;;
53044;SDS011;38930;52.766;6.884;2023-03-12T10:33:24;19.48;;;11.13;;
53044;SDS011;38930;52.766;6.884;2023-03-12T10:38:41;18.65;;;11.57;;
53044;SDS011;38930;52.766;6.884;2023-03-12T10:41:14;18.20;;;11.73;;
53044;SDS011;38930;52.766;6.884;2023-03-12T10:43:48;18.75;;;11.27;;
53044;SDS011;38930;52.766;6.884;2023-03-12T10:49:28;25.92;;;12.60;;
53044;SDS011;38930;52.766;6.884;2023-03-12T10:51:56;22.48;;;13.73;;
53044;SDS011;38930;52.766;6.884;2023-03-12T10:54:31;18.17;;;13.00;;
53044;SDS011;38930;52.766;6.884;2023-03-12T10:56:59;23.23;;;12.88;;
53044;SDS011;38930;52.766;6.884;2023-03-12T10:59:29;17.13;;;12.35;;
53044;SDS011;38930;52.766;6.884;2023-03-12T11:01:57;21.98;;;12.93;;
53044;SDS011;38930;52.766;6.884;2023-03-12T11:04:25;18.90;;;13.35;;
53044;SDS011;38930;52.766;6.884;2023-03-12T11:12:36;20.77;;;13.30;;
53044;SDS011;38930;52.766;6.884;2023-03-12T11:17:46;20.58;;;13.88;;
53044;SDS011;38930;52.766;6.884;2023-03-12T11:22:50;27.15;;;14.65;;
53044;SDS011;38930;52.766;6.884;2023-03-12T11:27:52;22.95;;;13.43;;
53044;SDS011;38930;52.766;6.884;2023-03-12T11:30:28;24.67;;;14.93;;
53044;SDS011;38930;52.766;6.884;2023-03-12T11:33:00;20.90;;;14.02;;
53044;SDS011;38930;52.766;6.884;2023-03-12T11:35:47;21.23;;;14.32;;
53044;SDS011;38930;52.766;6.884;2023-03-12T11:38:18;21.23;;;13.15;;
53044;SDS011;38930;52.766;6.884;2023-03-12T11:40:59;23.70;;;14.18;;
53044;SDS011;38930;52.766;6.884;2023-03-12T11:46:31;20.75;;;13.52;;
53044;SDS011;38930;52.766;6.884;2023-03-12T11:49:23;21.88;;;12.75;;
53044;SDS011;38930;52.766;6.884;2023-03-12T11:55:01;22.23;;;13.88;;
53044;SDS011;38930;52.766;6.884;2023-03-12T12:00:39;24.40;;;14.20;;
53044;SDS011;38930;52.766;6.884;2023-03-12T12:03:26;24.65;;;12.90;;
53044;SDS011;38930;52.766;6.884;2023-03-12T12:08:33;22.08;;;13.88;;
53044;SDS011;38930;52.766;6.884;2023-03-12T12:11:11;21.40;;;12.88;;
53044;SDS011;38930;52.766;6.884;2023-03-12T12:16:58;26.90;;;13.75;;
53044;SDS011;38930;52.766;6.884;2023-03-12T12:22:24;18.75;;;12.23;;
53044;SDS011;38930;52.766;6.884;2023-03-12T12:28:02;24.83;;;12.93;;
53044;SDS011;38930;52.766;6.884;2023-03-12T12:36:06;29.00;;;13.63;;
53044;SDS011;38930;52.766;6.884;2023-03-12T12:38:38;23.98;;;13.07;;
53044;SDS011;38930;52.766;6.884;2023-03-12T12:43:45;35.40;;;15.50;;
53044;SDS011;38930;52.766;6.884;2023-03-12T12:46:16;27.77;;;14.57;;
53044;SDS011;38930;52.766;6.884;2023-03-12T12:49:46;27.05;;;13.52;;
53044;SDS011;38930;52.766;6.884;2023-03-12T12:52:00;28.73;;;13.27;;
53044;SDS011;38930;52.766;6.884;2023-03-12T13:02:43;29.95;;;13.00;;
53044;SDS011;38930;52.766;6.884;2023-03-12T13:05:19;31.38;;;15.13;;
53044;SDS011;38930;52.766;6.884;2023-03-12T13:07:49;31.75;;;14.52;;
53044;SDS011;38930;52.766;6.884;2023-03-12T13:12:59;35.83;;;15.25;;
53044;SDS011;38930;52.766;6.884;2023-03-12T13:15:33;32.42;;;15.30;;
53044;SDS011;38930;52.766;6.884;2023-03-12T13:18:08;40.55;;;17.23;;
53044;SDS011;38930;52.766;6.884;2023-03-12T13:21:27;30.25;;;14.68;;
53044;SDS011;38930;52.766;6.884;2023-03-12T13:26:19;37.92;;;15.57;;
53044;SDS011;38930;52.766;6.884;2023-03-12T13:33:52;33.72;;;16.17;;
53044;SDS011;38930;52.766;6.884;2023-03-12T13:36:19;39.25;;;16.75;;
53044;SDS011;38930;52.766;6.884;2023-03-12T13:41:45;40.45;;;17.05;;
53044;SDS011;38930;52.766;6.884;2023-03-12T13:46:48;38.53;;;17.85;;
53044;SDS011;38930;52.766;6.884;2023-03-12T13:49:39;43.72;;;16.52;;
53044;SDS011;38930;52.766;6.884;2023-03-12T13:52:14;43.92;;;17.50;;
53044;SDS011;38930;52.766;6.884;2023-03-12T13:54:58;65.07;;;18.85;;
53044;SDS011;38930;52.766;6.884;2023-03-12T13:57:39;56.42;;;18.40;;
53044;SDS011;38930;52.766;6.884;2023-03-12T14:00:14;48.75;;;17.23;;
53044;SDS011;38930;52.766;6.884;2023-03-12T14:02:43;45.47;;;18.02;;
53044;SDS011;38930;52.766;6.884;2023-03-12T14:05:21;45.58;;;17.65;;
53044;SDS011;38930;52.766;6.884;2023-03-12T14:07:54;47.28;;;19.08;;
53044;SDS011;38930;52.766;6.884;2023-03-12T14:13:45;52.22;;;18.27;;
53044;SDS011;38930;52.766;6.884;2023-03-12T14:19:15;57.70;;;18.33;;
53044;SDS011;38930;52.766;6.884;2023-03-12T14:21:44;51.85;;;18.25;;
53044;SDS011;38930;52.766;6.884;2023-03-12T14:24:55;53.75;;;17.95;;
53044;SDS011;38930;52.766;6.884;2023-03-12T14:27:04;46.75;;;17.42;;
53044;SDS011;38930;52.766;6.884;2023-03-12T14:29:34;47.10;;;17.10;;
53044;SDS011;38930;52.766;6.884;2023-03-12T14:32:03;44.40;;;16.00;;
53044;SDS011;38930;52.766;6.884;2023-03-12T14:34:50;49.30;;;16.42;;
53044;SDS011;38930;52.766;6.884;2023-03-12T14:37:23;54.70;;;16.25;;
53044;SDS011;38930;52.766;6.884;2023-03-12T14:39:54;47.92;;;16.02;;
53044;SDS011;38930;52.766;6.884;2023-03-12T14:42:29;40.08;;;14.82;;
53044;SDS011;38930;52.766;6.884;2023-03-12T14:45:18;36.67;;;15.43;;
53044;SDS011;38930;52.766;6.884;2023-03-12T14:47:45;43.70;;;15.25;;
53044;SDS011;38930;52.766;6.884;2023-03-12T14:50:20;47.40;;;15.93;;
53044;SDS011;38930;52.766;6.884;2023-03-12T14:52:48;50.22;;;14.90;;
53044;SDS011;38930;52.766;6.884;2023-03-12T14:55:15;44.63;;;13.52;;
53044;SDS011;38930;52.766;6.884;2023-03-12T14:57:46;45.72;;;13.40;;
53044;SDS011;38930;52.766;6.884;2023-03-12T15:00:20;41.20;;;13.38;;
53044;SDS011;38930;52.766;6.884;2023-03-12T15:02:49;48.72;;;14.85;;
53044;SDS011;38930;52.766;6.884;2023-03-12T15:05:17;38.70;;;13.65;;
53044;SDS011;38930;52.766;6.884;2023-03-12T15:07:44;47.25;;;12.88;;
53044;SDS011;38930;52.766;6.884;2023-03-12T15:10:21;52.53;;;13.70;;
53044;SDS011;38930;52.766;6.884;2023-03-12T15:18:19;41.58;;;12.82;;
53044;SDS011;38930;52.766;6.884;2023-03-12T15:20:53;48.15;;;12.70;;
53044;SDS011;38930;52.766;6.884;2023-03-12T15:23:20;38.53;;;11.65;;
53044;SDS011;38930;52.766;6.884;2023-03-12T15:25:47;48.40;;;11.63;;
53044;SDS011;38930;52.766;6.884;2023-03-12T15:29:18;38.25;;;10.57;;
53044;SDS011;38930;52.766;6.884;2023-03-12T15:31:53;37.10;;;9.43;;
53044;SDS011;38930;52.766;6.884;2023-03-12T15:37:00;45.33;;;10.50;;
53044;SDS011;38930;52.766;6.884;2023-03-12T15:39:29;46.15;;;10.55;;
53044;SDS011;38930;52.766;6.884;2023-03-12T15:42:06;38.17;;;9.75;;
53044;SDS011;38930;52.766;6.884;2023-03-12T15:44:41;37.55;;;9.32;;
53044;SDS011;38930;52.766;6.884;2023-03-12T15:47:17;56.90;;;11.55;;
53044;SDS011;38930;52.766;6.884;2023-03-12T15:49:51;53.30;;;8.77;;
53044;SDS011;38930;52.766;6.884;2023-03-12T15:52:27;47.33;;;8.23;;
53044;SDS011;38930;52.766;6.884;2023-03-12T15:57:26;28.35;;;7.38;;
53044;SDS011;38930;52.766;6.884;2023-03-12T16:02:54;48.08;;;7.13;;
53044;SDS011;38930;52.766;6.884;2023-03-12T16:05:32;37.10;;;7.40;;
53044;SDS011;38930;52.766;6.884;2023-03-12T16:08:22;36.75;;;7.13;;
53044;SDS011;38930;52.766;6.884;2023-03-12T16:11:21;41.60;;;9.63;;
53044;SDS011;38930;52.766;6.884;2023-03-12T16:13:49;35.13;;;7.63;;
53044;SDS011;38930;52.766;6.884;2023-03-12T16:16:17;36.05;;;7.07;;
53044;SDS011;38930;52.766;6.884;2023-03-12T16:18:43;29.60;;;6.78;;
53044;SDS011;38930;52.766;6.884;2023-03-12T16:21:09;35.20;;;5.93;;
53044;SDS011;38930;52.766;6.884;2023-03-12T16:23:35;37.58;;;6.43;;
53044;SDS011;38930;52.766;6.884;2023-03-12T16:26:01;36.92;;;6.70;;
53044;SDS011;38930;52.766;6.884;2023-03-12T16:28:28;36.33;;;7.03;;
53044;SDS011;38930;52.766;6.884;2023-03-12T16:30:54;32.40;;;6.90;;
53044;SDS011;38930;52.766;6.884;2023-03-12T16:33:21;33.10;;;6.68;;
53044;SDS011;38930;52.766;6.884;2023-03-12T16:35:48;40.42;;;5.93;;
53044;SDS011;38930;52.766;6.884;2023-03-12T16:38:14;40.65;;;6.70;;
53044;SDS011;38930;52.766;6.884;2023-03-12T16:40:42;33.95;;;6.25;;
53044;SDS011;38930;52.766;6.884;2023-03-12T16:43:12;25.55;;;5.65;;
53044;SDS011;38930;52.766;6.884;2023-03-12T16:45:42;24.33;;;5.60;;
53044;SDS011;38930;52.766;6.884;2023-03-12T16:48:12;32.03;;;6.22;;
53044;SDS011;38930;52.766;6.884;2023-03-12T16:50:39;26.80;;;6.07;;
53044;SDS011;38930;52.766;6.884;2023-03-12T16:53:05;29.63;;;6.15;;
53044;SDS011;38930;52.766;6.884;2023-03-12T16:55:36;34.28;;;7.10;;